Scarsdale, NY (10583)

5:31 PM EDT on August 03, 2015 (GMT -0400)
Scarsdale, NY --Heathcote section | | Change Station
CLOSE
Current Station
Personal Weather Station
Location: Scarsdale, NY
Elevation: 279 ft
Nearby Weather Stations

Elev 279 ft 40.99 °N, 73.77 °W | Updated 2 minutes ago

Partly Cloudy
Partly Cloudy
85.3 °F
Feels Like 88 °F
N
2.0
Wind Variable Wind from SE
Gusts 15.0 mph

Today
High -- | Low -- °F
--% Chance of Precip.
Yesterday
High -- | Low -- °F
Precip. -- in
5:52 AM 8:09 PM
Waning Gibbous, 84% visible
Pressure 29.76 in
Visibility 10.0 miles
Clouds Scattered Clouds 8000 ft
Heat Index 88 °F
Dew Point 67 °F
Humidity 55%
Rainfall 0.00 in
Snow Depth Not available.
UV 3 out of 12
Pollen 7.80 out of 12
Air Quality Not available.
Flu Activity Not available.
METAR KHPN 032056Z 18010G20KT 10SM SCT080 29/17 A2978 RMK AO2 SLP077 T02940172 56007

More Conditions Fewer Conditions

Pressure 29.76 in
Visibility 10.0 miles
Clouds Scattered Clouds 8000 ft
Heat Index 88 °F
Dew Point 67 °F
Humidity 55%
Rainfall 0.00 in
Snow Depth Not available.
UV 3 out of 12
Pollen 7.80 out of 12
Air Quality Not available.
Flu Activity Not available.
METAR KHPN 032056Z 18010G20KT 10SM SCT080 29/17 A2978 RMK AO2 SLP077 T02940172 56007

More Conditions Fewer Conditions

10-Day Weather Forecast

×

Almanac

Astronomy

Aug. 03, 2015 Rise Set
Actual Time
Civil Twilight
Nautical Twilight
Astronomical Twilight
Moon
Length of Visible Light
Length of Day
Tomorrow will be .
, % of the Moon is Illuminated

Today's Extremes

State Highs State Lows

Community

WunderPhotos

Upload Photos

1,843,772 photos uploaded!

WunderBlogs® & News

Nearby

Air Quality

  Air Quality AQ Index Pollutant
Not available.

Snow Depth

Station Depth Elevation

Earthquake Activity

City Distance Mag. Time & Date
Minimum magnitude displayed is 2.5.

Coastal Water Temperatures

Place Temperature

Stations

Nearby Weather Stations

Station Location Temp. Windchill Dew Point Humidity Wind Precip. Elev Updated Type